createdAt,value
2022-08-17T00:01:26.246Z,7.10
2022-08-17T00:03:53.779Z,6.85
2022-08-17T00:06:27.304Z,7.25
2022-08-17T00:08:57.054Z,6.88
2022-08-17T00:11:26.062Z,6.63
2022-08-17T00:13:58.879Z,6.28
2022-08-17T00:16:53.464Z,6.53
2022-08-17T00:19:22.895Z,7.20
2022-08-17T00:22:30.809Z,7.25
2022-08-17T00:24:38.863Z,8.07
2022-08-17T00:27:05.286Z,7.20
2022-08-17T00:29:31.672Z,6.55
2022-08-17T00:31:58.047Z,7.25
2022-08-17T00:34:25.393Z,7.13
2022-08-17T00:36:54.402Z,6.43
2022-08-17T00:39:20.815Z,6.65
2022-08-17T00:41:47.666Z,6.53
2022-08-17T00:44:15.425Z,7.28
2022-08-17T00:46:43.640Z,6.30
2022-08-17T00:49:12.193Z,6.80
2022-08-17T00:51:46.422Z,6.70
2022-08-17T00:54:15.235Z,6.60
2022-08-17T00:59:20.893Z,7.78
2022-08-17T01:01:54.140Z,6.05
2022-08-17T01:04:23.964Z,7.47
2022-08-17T01:06:51.620Z,7.32
2022-08-17T01:09:19.368Z,6.70
2022-08-17T01:11:46.832Z,6.80
2022-08-17T01:14:13.504Z,7.43
2022-08-17T01:16:40.007Z,7.63
2022-08-17T01:19:20.941Z,6.60
2022-08-17T01:21:51.776Z,7.80
2022-08-17T01:24:18.228Z,7.38
2022-08-17T01:26:45.989Z,7.40
2022-08-17T01:29:13.968Z,8.15
2022-08-17T01:31:53.316Z,7.97
2022-08-17T01:34:20.233Z,7.88
2022-08-17T01:36:49.093Z,7.97
2022-08-17T01:39:31.582Z,8.00
2022-08-17T01:42:08.439Z,8.68
2022-08-17T01:44:36.977Z,7.18
2022-08-17T01:47:05.868Z,7.85
2022-08-17T01:49:32.713Z,7.97
2022-08-17T01:52:06.553Z,6.65
2022-08-17T01:54:33.232Z,7.50
2022-08-17T01:56:59.601Z,7.50
2022-08-17T01:59:26.026Z,8.20
2022-08-17T02:01:52.901Z,8.57
2022-08-17T02:04:19.300Z,7.00
2022-08-17T02:06:53.373Z,7.95
2022-08-17T02:09:24.092Z,8.43
2022-08-17T02:11:54.236Z,8.38
2022-08-17T02:14:20.919Z,9.00
2022-08-17T02:16:47.438Z,8.43
2022-08-17T02:19:15.929Z,8.50
2022-08-17T02:21:44.480Z,7.90
2022-08-17T02:24:17.243Z,7.57
2022-08-17T02:26:43.762Z,8.00
2022-08-17T02:29:10.148Z,7.53
2022-08-17T02:31:37.714Z,6.72
2022-08-17T02:34:05.371Z,8.93
2022-08-17T02:36:33.879Z,8.45
2022-08-17T02:39:05.508Z,8.13
2022-08-17T02:41:32.881Z,8.32
2022-08-17T02:43:59.379Z,8.57
2022-08-17T02:46:26.134Z,8.98
2022-08-17T02:48:52.540Z,8.05
2022-08-17T02:51:19.947Z,8.32
2022-08-17T02:53:46.721Z,9.07
2022-08-17T02:56:13.113Z,8.75
2022-08-17T02:58:39.625Z,8.23
2022-08-17T03:01:08.372Z,9.00
2022-08-17T03:03:36.037Z,8.18
2022-08-17T03:06:03.880Z,8.80
2022-08-17T03:08:31.150Z,8.77
2022-08-17T03:10:57.585Z,8.20
2022-08-17T03:13:24.357Z,9.10
2022-08-17T03:15:51.149Z,8.65
2022-08-17T03:18:25.272Z,7.95
2022-08-17T03:20:55.669Z,7.72
2022-08-17T03:23:24.086Z,8.57
2022-08-17T03:25:53.784Z,9.27
2022-08-17T03:28:21.538Z,8.43
2022-08-17T03:30:48.002Z,9.20
2022-08-17T03:33:14.528Z,8.80
2022-08-17T03:35:41.649Z,9.73
2022-08-17T03:38:10.902Z,11.90
2022-08-17T03:40:56.729Z,10.02
2022-08-17T03:43:25.142Z,10.82
2022-08-17T03:46:28.864Z,11.23
2022-08-17T03:49:22.553Z,11.93
2022-08-17T03:52:07.485Z,11.88
2022-08-17T03:54:52.553Z,11.77
2022-08-17T03:57:19.078Z,12.90
2022-08-17T03:59:45.554Z,12.10
2022-08-17T04:02:33.846Z,11.23
2022-08-17T04:05:00.767Z,10.20
2022-08-17T04:07:29.607Z,10.43
2022-08-17T04:09:57.752Z,11.05
2022-08-17T04:12:26.360Z,10.30
2022-08-17T04:14:54.870Z,11.98
2022-08-17T04:17:28.219Z,10.40
2022-08-17T04:19:55.626Z,12.05
2022-08-17T04:22:33.121Z,11.38
2022-08-17T04:25:13.460Z,11.32
2022-08-17T04:27:39.918Z,10.73
2022-08-17T04:30:07.377Z,10.43
2022-08-17T04:33:03.837Z,11.60
2022-08-17T04:35:36.634Z,10.70
2022-08-17T04:38:03.906Z,10.25
2022-08-17T04:41:05.724Z,9.57
2022-08-17T04:43:34.758Z,10.13
2022-08-17T04:46:07.369Z,10.40
2022-08-17T04:48:41.156Z,8.85
2022-08-17T04:51:22.247Z,9.10
2022-08-17T04:53:54.303Z,9.45
2022-08-17T04:56:22.341Z,8.25
2022-08-17T04:58:50.788Z,9.05
2022-08-17T05:01:24.137Z,8.10
2022-08-17T05:03:53.166Z,8.93
2022-08-17T05:06:19.755Z,9.57
2022-08-17T05:08:46.123Z,8.48
2022-08-17T05:11:14.050Z,8.65
2022-08-17T05:13:40.422Z,8.70
2022-08-17T05:16:07.189Z,8.23
2022-08-17T05:18:33.668Z,8.38
2022-08-17T05:21:00.235Z,9.15
2022-08-17T05:23:42.202Z,9.15
2022-08-17T05:26:26.225Z,9.77
2022-08-17T05:29:00.317Z,9.73
2022-08-17T05:31:29.889Z,8.30
2022-08-17T05:33:56.412Z,9.90
2022-08-17T05:36:42.267Z,9.85
2022-08-17T05:39:09.257Z,10.57
2022-08-17T05:41:43.231Z,9.90
2022-08-17T05:44:10.541Z,10.35
2022-08-17T05:46:41.666Z,10.43
2022-08-17T05:49:08.713Z,10.30
2022-08-17T05:51:53.551Z,9.63
2022-08-17T05:54:32.156Z,9.52
2022-08-17T05:57:16.800Z,8.13
2022-08-17T06:00:14.262Z,8.57
2022-08-17T06:02:50.033Z,8.07
2022-08-17T06:05:22.347Z,8.90
2022-08-17T06:08:08.773Z,7.65
2022-08-17T06:11:13.994Z,7.15
2022-08-17T06:14:05.435Z,6.85
2022-08-17T06:16:38.701Z,7.50
2022-08-17T06:19:19.534Z,7.78
2022-08-17T06:21:52.918Z,6.72
2022-08-17T06:24:43.964Z,7.40
2022-08-17T06:27:35.582Z,6.97
2022-08-17T06:30:11.174Z,7.22
2022-08-17T06:32:41.182Z,7.22
2022-08-17T06:35:10.758Z,6.57
2022-08-17T06:38:01.892Z,6.90
2022-08-17T06:40:47.477Z,5.90
2022-08-17T06:43:50.499Z,6.03
2022-08-17T06:46:37.072Z,6.18
2022-08-17T06:49:13.951Z,6.30
2022-08-17T06:51:46.510Z,6.57
2022-08-17T06:54:34.009Z,8.00
2022-08-17T06:57:13.280Z,7.85
2022-08-17T06:59:58.025Z,7.57
2022-08-17T07:02:52.680Z,7.93
2022-08-17T07:05:25.427Z,7.18
2022-08-17T07:08:05.433Z,6.80
2022-08-17T07:10:40.795Z,6.60
2022-08-17T07:13:37.093Z,6.53
2022-08-17T07:16:20.444Z,7.30
2022-08-17T07:18:50.608Z,7.32
2022-08-17T07:21:44.212Z,7.00
2022-08-17T07:24:30.143Z,7.72
2022-08-17T07:27:06.343Z,6.13
2022-08-17T07:29:47.388Z,6.60
2022-08-17T07:32:18.430Z,7.40
2022-08-17T07:35:12.780Z,6.38
2022-08-17T07:37:55.518Z,6.22
2022-08-17T07:40:26.993Z,6.53
2022-08-17T07:43:15.609Z,7.00
2022-08-17T07:46:19.513Z,6.18
2022-08-17T07:48:49.668Z,6.38
2022-08-17T07:51:25.131Z,7.03
2022-08-17T07:54:13.085Z,5.97
2022-08-17T07:56:53.603Z,7.10
2022-08-17T07:59:27.233Z,6.88
2022-08-17T08:02:03.833Z,6.85
2022-08-17T08:04:59.125Z,7.63
2022-08-17T08:07:28.787Z,5.95
2022-08-17T08:10:14.032Z,7.45
2022-08-17T08:12:48.914Z,7.32
2022-08-17T08:15:23.547Z,6.88
2022-08-17T08:18:02.972Z,7.63
2022-08-17T08:20:53.321Z,7.20
2022-08-17T08:23:46.334Z,7.50
2022-08-17T08:26:17.949Z,7.32
2022-08-17T08:29:12.462Z,7.38
2022-08-17T08:31:56.155Z,6.82
2022-08-17T08:34:47.374Z,7.43
2022-08-17T08:37:47.312Z,7.80
2022-08-17T08:40:32.312Z,8.07
2022-08-17T08:43:06.559Z,7.07
2022-08-17T08:45:43.821Z,6.28
2022-08-17T08:48:58.270Z,8.27
2022-08-17T08:51:30.841Z,7.70
2022-08-17T08:54:11.809Z,8.02
2022-08-17T08:57:21.487Z,8.25
2022-08-17T09:00:27.252Z,7.53
2022-08-17T09:03:09.608Z,7.38
2022-08-17T09:06:04.174Z,7.80
2022-08-17T09:08:58.936Z,8.95
2022-08-17T09:12:02.911Z,8.20
2022-08-17T09:14:47.341Z,9.90
2022-08-17T09:17:25.279Z,8.73
2022-08-17T09:19:58.576Z,7.53
2022-08-17T09:22:38.346Z,7.78
2022-08-17T09:25:20.606Z,7.88
2022-08-17T09:28:03.772Z,7.80
2022-08-17T09:30:43.964Z,7.93
2022-08-17T09:33:13.788Z,7.65
2022-08-17T09:35:55.650Z,8.20
2022-08-17T09:38:35.094Z,8.07
2022-08-17T09:41:28.592Z,6.97
2022-08-17T09:44:23.010Z,7.30
2022-08-17T09:46:59.434Z,7.50
2022-08-17T09:49:54.463Z,6.72
2022-08-17T09:52:29.112Z,6.97
2022-08-17T09:55:01.181Z,7.13
2022-08-17T09:57:46.757Z,7.20
2022-08-17T10:00:25.054Z,8.18
2022-08-17T10:03:25.545Z,8.70
2022-08-17T10:06:08.251Z,7.82
2022-08-17T10:08:46.926Z,8.70
2022-08-17T10:12:05.445Z,7.82
2022-08-17T10:15:08.051Z,9.30
2022-08-17T10:18:11.248Z,8.25
2022-08-17T10:21:19.296Z,9.50
2022-08-17T10:24:09.420Z,9.38
2022-08-17T10:26:56.044Z,9.80
2022-08-17T10:32:09.029Z,10.75
2022-08-17T10:34:49.519Z,11.30
2022-08-17T10:37:25.119Z,10.98
2022-08-17T10:39:59.273Z,10.80
2022-08-17T10:42:44.319Z,10.68
2022-08-17T10:45:36.705Z,9.52
2022-08-17T10:48:07.089Z,7.80
2022-08-17T10:50:42.759Z,8.38
2022-08-17T10:53:09.438Z,7.80
2022-08-17T10:55:36.139Z,7.72
2022-08-17T10:58:24.502Z,7.43
2022-08-17T11:00:53.477Z,6.97
2022-08-17T11:03:24.634Z,7.63
2022-08-17T11:06:06.057Z,6.25
2022-08-17T11:08:55.193Z,7.18
2022-08-17T11:11:52.778Z,6.45
2022-08-17T11:14:50.070Z,6.55
2022-08-17T11:17:37.713Z,6.25
2022-08-17T11:20:38.616Z,6.20
2022-08-17T11:23:31.104Z,6.18
2022-08-17T11:26:04.025Z,6.13
2022-08-17T11:28:35.731Z,5.70
2022-08-17T11:31:38.386Z,5.93
2022-08-17T11:34:18.732Z,5.40
2022-08-17T11:37:10.463Z,4.85
2022-08-17T11:40:06.485Z,4.00
2022-08-17T11:43:10.615Z,4.80
2022-08-17T11:45:52.504Z,4.28
2022-08-17T11:49:01.618Z,5.40
2022-08-17T11:52:00.200Z,4.97
2022-08-17T11:54:33.340Z,5.32
2022-08-17T11:57:26.154Z,5.70
2022-08-17T11:59:55.439Z,6.20
2022-08-17T12:02:35.308Z,4.60
2022-08-17T12:05:27.215Z,5.78
2022-08-17T12:08:02.681Z,5.55
2022-08-17T12:10:34.243Z,5.32
2022-08-17T12:13:10.130Z,6.10
2022-08-17T12:15:42.440Z,5.60
2022-08-17T12:18:18.023Z,5.95
2022-08-17T12:20:54.597Z,6.28
2022-08-17T12:23:40.559Z,5.63
2022-08-17T12:26:23.216Z,5.95
2022-08-17T12:29:01.862Z,5.15
2022-08-17T12:31:33.492Z,5.20
2022-08-17T12:34:00.485Z,5.15
2022-08-17T12:36:28.671Z,5.88
2022-08-17T12:39:14.629Z,5.50
2022-08-17T12:41:47.997Z,5.80
2022-08-17T12:44:23.082Z,5.82
2022-08-17T12:47:19.447Z,6.00
2022-08-17T12:49:51.292Z,6.57
2022-08-17T12:52:23.581Z,6.03
2022-08-17T12:55:18.546Z,6.70
2022-08-17T12:57:49.290Z,7.10
2022-08-17T13:00:31.734Z,6.53
2022-08-17T13:02:59.682Z,6.00
2022-08-17T13:05:28.855Z,5.78
2022-08-17T13:07:57.593Z,5.43
2022-08-17T13:10:33.152Z,6.53
2022-08-17T13:13:05.833Z,6.43
2022-08-17T13:15:43.253Z,5.68
2022-08-17T13:18:49.921Z,5.43
2022-08-17T13:21:18.959Z,5.43
2022-08-17T13:23:58.820Z,10.93
2022-08-17T13:26:29.530Z,5.55
2022-08-17T13:28:56.505Z,5.03
2022-08-17T13:31:27.759Z,4.45
2022-08-17T13:34:25.336Z,4.43
2022-08-17T13:37:32.495Z,4.43
2022-08-17T13:40:08.149Z,5.32
2022-08-17T13:42:50.536Z,3.67
2022-08-17T13:45:36.258Z,4.13
2022-08-17T13:48:27.564Z,4.82
2022-08-17T13:50:56.738Z,5.07
2022-08-17T13:53:40.464Z,4.70
2022-08-17T13:56:33.232Z,4.25
2022-08-17T13:59:04.753Z,4.85
2022-08-17T14:01:39.175Z,4.90
2022-08-17T14:04:13.816Z,4.45
2022-08-17T14:06:53.050Z,4.57
2022-08-17T14:09:24.063Z,4.72
2022-08-17T14:11:51.521Z,4.35
2022-08-17T14:14:18.036Z,4.50
2022-08-17T14:16:44.489Z,4.47
2022-08-17T14:19:13.293Z,4.30
2022-08-17T14:21:42.833Z,4.78
2022-08-17T14:24:17.336Z,3.60
2022-08-17T14:26:44.826Z,4.07
2022-08-17T14:29:15.237Z,4.05
2022-08-17T14:31:42.217Z,3.92
2022-08-17T14:34:12.454Z,4.40
2022-08-17T14:36:41.620Z,4.20
2022-08-17T14:39:16.022Z,4.03
2022-08-17T14:41:42.786Z,4.07
2022-08-17T14:44:12.458Z,3.85
2022-08-17T14:46:40.798Z,4.20
2022-08-17T14:51:34.412Z,4.18
2022-08-17T14:54:00.795Z,4.30
2022-08-17T14:56:27.678Z,4.30
2022-08-17T14:58:58.239Z,3.92
2022-08-17T15:01:26.457Z,4.22
2022-08-17T15:06:22.827Z,3.90
2022-08-17T15:08:49.501Z,4.35
2022-08-17T15:11:16.661Z,4.10
2022-08-17T15:13:52.825Z,4.35
2022-08-17T15:16:20.378Z,4.25
2022-08-17T15:18:46.856Z,4.28
2022-08-17T15:21:14.738Z,4.10
2022-08-17T15:23:41.471Z,4.72
2022-08-17T15:26:10.979Z,4.75
2022-08-17T15:28:37.742Z,5.25
2022-08-17T15:31:05.625Z,4.95
2022-08-17T15:33:32.492Z,4.10
2022-08-17T15:36:02.838Z,4.43
2022-08-17T15:38:35.546Z,4.55
2022-08-17T15:41:03.489Z,4.88
2022-08-17T15:43:34.477Z,4.40
2022-08-17T15:46:12.411Z,4.57
2022-08-17T15:48:41.706Z,4.20
2022-08-17T15:51:19.067Z,4.55
2022-08-17T15:53:49.909Z,4.93
2022-08-17T15:56:17.261Z,4.55
2022-08-17T15:58:46.497Z,4.95
2022-08-17T16:01:18.684Z,4.35
2022-08-17T16:04:07.294Z,4.60
2022-08-17T16:06:48.793Z,4.20
2022-08-17T16:09:16.131Z,4.50
2022-08-17T16:11:45.810Z,5.00
2022-08-17T16:14:18.591Z,4.00
2022-08-17T16:16:45.344Z,4.38
2022-08-17T16:19:11.738Z,5.03
2022-08-17T16:21:42.474Z,4.50
2022-08-17T16:24:13.591Z,5.03
2022-08-17T16:26:41.371Z,4.30
2022-08-17T16:29:08.088Z,4.53
2022-08-17T16:31:36.000Z,5.00
2022-08-17T16:34:16.124Z,4.30
2022-08-17T16:36:53.568Z,5.07
2022-08-17T16:39:29.131Z,4.28
2022-08-17T16:41:56.430Z,4.97
2022-08-17T16:44:23.206Z,5.03
2022-08-17T16:46:50.272Z,4.68
2022-08-17T16:49:36.119Z,5.10
2022-08-17T16:52:05.839Z,5.00
2022-08-17T16:57:03.865Z,4.93
2022-08-17T16:59:40.812Z,4.78
2022-08-17T17:02:12.924Z,4.18
2022-08-17T17:04:55.001Z,5.28
2022-08-17T17:07:49.547Z,5.22
2022-08-17T17:10:28.267Z,4.68
2022-08-17T17:13:03.756Z,4.97
2022-08-17T17:16:00.014Z,5.28
2022-08-17T17:18:38.125Z,4.63
2022-08-17T17:21:06.352Z,4.55
2022-08-17T17:23:43.563Z,5.38
2022-08-17T17:26:43.013Z,4.90
2022-08-17T17:29:14.054Z,5.32
2022-08-17T17:32:02.977Z,4.72
2022-08-17T17:34:34.358Z,4.10
2022-08-17T17:37:07.144Z,4.82
2022-08-17T17:39:44.102Z,4.47
2022-08-17T17:42:14.393Z,4.40
2022-08-17T17:44:49.546Z,5.32
2022-08-17T17:47:16.194Z,4.35
2022-08-17T17:49:44.494Z,4.75
2022-08-17T17:52:40.961Z,5.07
2022-08-17T17:55:21.178Z,5.38
2022-08-17T17:58:10.789Z,4.85
2022-08-17T18:00:47.293Z,5.05
2022-08-17T18:03:25.114Z,4.80
2022-08-17T18:06:10.483Z,4.65
2022-08-17T18:08:54.593Z,4.72
2022-08-17T18:11:24.897Z,4.75
2022-08-17T18:14:14.317Z,5.63
2022-08-17T18:16:42.643Z,4.97
2022-08-17T18:19:20.588Z,5.07
2022-08-17T18:21:52.082Z,5.60
2022-08-17T18:24:30.340Z,5.05
2022-08-17T18:26:59.357Z,5.78
2022-08-17T18:29:32.330Z,4.97
2022-08-17T18:32:24.646Z,5.53
2022-08-17T18:35:16.179Z,5.60
2022-08-17T18:37:52.192Z,5.95
2022-08-17T18:40:21.671Z,5.45
2022-08-17T18:43:05.769Z,4.50
2022-08-17T18:45:49.101Z,5.30
2022-08-17T18:48:18.498Z,6.60
2022-08-17T18:50:45.016Z,6.18
2022-08-17T18:53:39.421Z,6.40
2022-08-17T18:56:20.164Z,6.18
2022-08-17T18:59:04.069Z,5.57
2022-08-17T19:01:52.606Z,6.20
2022-08-17T19:04:37.754Z,5.25
2022-08-17T19:07:24.505Z,5.93
2022-08-17T19:09:59.188Z,5.78
2022-08-17T19:12:33.167Z,6.20
2022-08-17T19:15:01.047Z,5.68
2022-08-17T19:17:37.632Z,5.93
2022-08-17T19:20:29.167Z,6.03
2022-08-17T19:23:02.100Z,6.25
2022-08-17T19:25:34.150Z,6.30
2022-08-17T19:28:21.959Z,10.52
2022-08-17T19:30:54.714Z,5.32
2022-08-17T19:33:21.203Z,6.38
2022-08-17T19:36:03.713Z,6.55
2022-08-17T19:38:51.419Z,6.70
2022-08-17T19:41:28.175Z,5.40
2022-08-17T19:44:36.611Z,5.40
2022-08-17T19:47:30.722Z,5.57
2022-08-17T19:50:23.411Z,5.38
2022-08-17T19:53:00.082Z,5.95
2022-08-17T19:55:43.516Z,6.32
2022-08-17T19:58:30.584Z,5.22
2022-08-17T20:00:57.330Z,5.82
2022-08-17T20:03:51.027Z,5.50
2022-08-17T20:06:20.691Z,6.22
2022-08-17T20:08:58.759Z,4.90
2022-08-17T20:11:37.988Z,5.88
2022-08-17T20:14:14.362Z,6.60
2022-08-17T20:16:41.126Z,6.22
2022-08-17T20:19:39.433Z,6.50
2022-08-17T20:22:20.436Z,6.10
2022-08-17T20:25:03.615Z,6.63
2022-08-17T20:27:48.199Z,6.18
2022-08-17T20:30:25.033Z,5.32
2022-08-17T20:35:29.915Z,7.00
2022-08-17T20:38:02.085Z,6.47
2022-08-17T20:40:50.220Z,6.47
2022-08-17T20:46:12.628Z,6.55
2022-08-17T20:48:44.069Z,5.90
2022-08-17T20:51:22.351Z,6.22
2022-08-17T20:53:53.393Z,6.18
2022-08-17T20:56:44.614Z,6.03
2022-08-17T20:59:27.439Z,5.97
2022-08-17T21:02:08.882Z,5.97
2022-08-17T21:04:50.719Z,6.63
2022-08-17T21:07:33.020Z,5.65
2022-08-17T21:10:18.045Z,6.50
2022-08-17T21:12:50.535Z,6.43
2022-08-17T21:15:43.663Z,6.25
2022-08-17T21:18:41.847Z,7.05
2022-08-17T21:21:39.376Z,6.78
2022-08-17T21:24:13.621Z,7.13
2022-08-17T21:26:50.618Z,6.78
2022-08-17T21:29:32.504Z,7.13
2022-08-17T21:32:03.340Z,7.55
2022-08-17T21:34:34.156Z,6.47
2022-08-17T21:37:22.197Z,6.47
2022-08-17T21:39:59.994Z,6.72
2022-08-17T21:42:32.043Z,6.57
2022-08-17T21:45:19.132Z,6.70
2022-08-17T21:48:05.321Z,7.40
2022-08-17T21:50:32.493Z,7.63
2022-08-17T21:53:01.237Z,6.30
2022-08-17T21:55:30.317Z,7.68
2022-08-17T21:58:13.473Z,7.60
2022-08-17T22:00:43.989Z,7.13
2022-08-17T22:03:23.652Z,7.78
2022-08-17T22:05:51.145Z,8.10
2022-08-17T22:08:24.157Z,7.10
2022-08-17T22:10:59.173Z,7.70
2022-08-17T22:13:29.473Z,7.82
2022-08-17T22:16:15.220Z,7.63
2022-08-17T22:18:53.685Z,6.60
2022-08-17T22:21:20.663Z,7.28
2022-08-17T22:27:00.702Z,7.30
2022-08-17T22:29:58.202Z,7.05
2022-08-17T22:32:43.471Z,7.45
2022-08-17T22:35:25.983Z,6.63
2022-08-17T22:37:52.842Z,6.60
2022-08-17T22:40:31.959Z,7.78
2022-08-17T22:43:01.455Z,7.60
2022-08-17T22:45:31.099Z,7.30
2022-08-17T22:48:00.124Z,6.90
2022-08-17T22:50:29.316Z,7.47
2022-08-17T22:53:34.331Z,7.82
2022-08-17T22:56:19.398Z,8.80
2022-08-17T22:59:15.676Z,8.23
2022-08-17T23:01:45.298Z,7.72
2022-08-17T23:04:31.893Z,7.13
2022-08-17T23:06:58.253Z,7.97
2022-08-17T23:09:24.699Z,7.32
2022-08-17T23:11:55.686Z,6.70
2022-08-17T23:14:22.382Z,7.00
2022-08-17T23:16:50.228Z,8.35
2022-08-17T23:19:21.572Z,8.75
2022-08-17T23:21:54.317Z,8.20
2022-08-17T23:24:30.180Z,9.05
2022-08-17T23:26:58.005Z,8.52
2022-08-17T23:29:28.708Z,7.13
2022-08-17T23:31:57.798Z,7.38
2022-08-17T23:34:25.585Z,6.75
2022-08-17T23:36:53.043Z,6.28
2022-08-17T23:39:27.535Z,6.05
2022-08-17T23:44:24.884Z,5.95
2022-08-17T23:46:52.388Z,6.93
2022-08-17T23:49:19.422Z,6.57
2022-08-17T23:51:47.977Z,5.95
2022-08-17T23:54:26.690Z,5.93
2022-08-17T23:56:53.192Z,6.45
2022-08-17T23:59:22.404Z,5.97
